sensor_id;sensor_type;location;lat;lon;timestamp;pressure;altitude;pressure_sealevel;temperature;humidity
59825;BME280;45703;50.898;6.054;2023-04-06T00:01:57;100402.44;;;3.01;75.02
59825;BME280;45703;50.898;6.054;2023-04-06T00:04:22;100401.16;;;2.97;75.35
59825;BME280;45703;50.898;6.054;2023-04-06T00:06:47;100393.72;;;2.93;75.66
59825;BME280;45703;50.898;6.054;2023-04-06T00:09:13;100389.78;;;2.89;75.91
59825;BME280;45703;50.898;6.054;2023-04-06T00:11:38;100389.31;;;2.85;76.19
59825;BME280;45703;50.898;6.054;2023-04-06T00:14:04;100387.16;;;2.81;75.73
59825;BME280;45703;50.898;6.054;2023-04-06T00:16:29;100382.38;;;2.77;74.98
59825;BME280;45703;50.898;6.054;2023-04-06T00:18:55;100389.66;;;2.83;75.58
59825;BME280;45703;50.898;6.054;2023-04-06T00:21:20;100395.06;;;2.81;75.72
59825;BME280;45703;50.898;6.054;2023-04-06T00:23:45;100390.16;;;2.78;76.00
59825;BME280;45703;50.898;6.054;2023-04-06T00:26:11;100385.69;;;2.78;75.79
59825;BME280;45703;50.898;6.054;2023-04-06T00:28:37;100387.66;;;2.77;75.46
59825;BME280;45703;50.898;6.054;2023-04-06T00:31:03;100376.47;;;2.75;75.66
59825;BME280;45703;50.898;6.054;2023-04-06T00:33:28;100380.75;;;2.76;75.25
59825;BME280;45703;50.898;6.054;2023-04-06T00:35:53;100373.81;;;2.75;75.51
59825;BME280;45703;50.898;6.054;2023-04-06T00:38:19;100369.41;;;2.75;75.34
59825;BME280;45703;50.898;6.054;2023-04-06T00:40:45;100368.91;;;2.72;75.59
59825;BME280;45703;50.898;6.054;2023-04-06T00:43:11;100361.16;;;2.70;75.31
59825;BME280;45703;50.898;6.054;2023-04-06T00:45:41;100361.31;;;2.69;75.33
59825;BME280;45703;50.898;6.054;2023-04-06T00:48:07;100363.63;;;2.72;75.32
59825;BME280;45703;50.898;6.054;2023-04-06T00:50:34;100349.81;;;2.62;75.69
59825;BME280;45703;50.898;6.054;2023-04-06T00:52:59;100362.66;;;2.65;75.52
59825;BME280;45703;50.898;6.054;2023-04-06T00:55:28;100361.66;;;2.66;75.61
59825;BME280;45703;50.898;6.054;2023-04-06T00:57:54;100358.38;;;2.64;75.80
59825;BME280;45703;50.898;6.054;2023-04-06T01:00:22;100354.44;;;2.60;75.85
59825;BME280;45703;50.898;6.054;2023-04-06T01:02:47;100348.19;;;2.53;75.75
59825;BME280;45703;50.898;6.054;2023-04-06T01:05:13;100337.66;;;2.53;76.11
59825;BME280;45703;50.898;6.054;2023-04-06T01:07:38;100339.28;;;2.54;76.09
59825;BME280;45703;50.898;6.054;2023-04-06T01:10:04;100347.34;;;2.52;76.04
59825;BME280;45703;50.898;6.054;2023-04-06T01:12:30;100339.97;;;2.48;76.25
59825;BME280;45703;50.898;6.054;2023-04-06T01:14:55;100335.84;;;2.45;76.25
59825;BME280;45703;50.898;6.054;2023-04-06T01:17:21;100332.53;;;2.43;76.47
59825;BME280;45703;50.898;6.054;2023-04-06T01:19:47;100345.91;;;2.42;76.81
59825;BME280;45703;50.898;6.054;2023-04-06T01:22:18;100341.13;;;2.37;77.33
59825;BME280;45703;50.898;6.054;2023-04-06T01:24:44;100334.72;;;2.32;77.24
59825;BME280;45703;50.898;6.054;2023-04-06T01:27:10;100332.56;;;2.27;77.44
59825;BME280;45703;50.898;6.054;2023-04-06T01:29:36;100317.44;;;2.21;77.27
59825;BME280;45703;50.898;6.054;2023-04-06T01:32:01;100328.13;;;2.28;77.14
59825;BME280;45703;50.898;6.054;2023-04-06T01:34:26;100316.59;;;2.21;76.86
59825;BME280;45703;50.898;6.054;2023-04-06T01:36:52;100313.50;;;2.17;77.05
59825;BME280;45703;50.898;6.054;2023-04-06T01:39:18;100316.47;;;2.14;77.21
59825;BME280;45703;50.898;6.054;2023-04-06T01:41:44;100314.31;;;2.10;77.24
59825;BME280;45703;50.898;6.054;2023-04-06T01:44:10;100324.50;;;2.13;77.24
59825;BME280;45703;50.898;6.054;2023-04-06T01:46:35;100309.72;;;2.12;76.89
59825;BME280;45703;50.898;6.054;2023-04-06T01:49:01;100319.91;;;2.15;76.35
59825;BME280;45703;50.898;6.054;2023-04-06T01:51:26;100320.75;;;2.15;76.29
59825;BME280;45703;50.898;6.054;2023-04-06T01:53:51;100317.28;;;2.15;76.73
59825;BME280;45703;50.898;6.054;2023-04-06T01:56:17;100306.91;;;2.13;76.34
59825;BME280;45703;50.898;6.054;2023-04-06T01:58:42;100305.09;;;2.14;76.24
59825;BME280;45703;50.898;6.054;2023-04-06T02:01:08;100308.22;;;2.17;75.44
59825;BME280;45703;50.898;6.054;2023-04-06T02:03:33;100294.56;;;2.14;75.86
59825;BME280;45703;50.898;6.054;2023-04-06T02:05:59;100306.41;;;2.18;76.09
59825;BME280;45703;50.898;6.054;2023-04-06T02:08:24;100298.03;;;2.14;76.56
59825;BME280;45703;50.898;6.054;2023-04-06T02:10:50;100298.03;;;2.14;76.57
59825;BME280;45703;50.898;6.054;2023-04-06T02:13:15;100293.91;;;2.12;76.35
59825;BME280;45703;50.898;6.054;2023-04-06T02:15:41;100291.94;;;2.06;76.39
59825;BME280;45703;50.898;6.054;2023-04-06T02:18:06;100286.69;;;2.06;76.36
59825;BME280;45703;50.898;6.054;2023-04-06T02:20:32;100292.28;;;2.03;76.45
59825;BME280;45703;50.898;6.054;2023-04-06T02:22:58;100292.94;;;2.05;76.64
59825;BME280;45703;50.898;6.054;2023-04-06T02:25:25;100282.22;;;1.98;76.30
59825;BME280;45703;50.898;6.054;2023-04-06T02:27:50;100293.06;;;2.03;76.41
59825;BME280;45703;50.898;6.054;2023-04-06T02:30:16;100296.88;;;2.01;76.37
59825;BME280;45703;50.898;6.054;2023-04-06T02:32:41;100283.06;;;1.99;76.23
59825;BME280;45703;50.898;6.054;2023-04-06T02:35:07;100286.69;;;1.98;76.85
59825;BME280;45703;50.898;6.054;2023-04-06T02:37:32;100283.41;;;1.96;76.78
59825;BME280;45703;50.898;6.054;2023-04-06T02:39:58;100273.34;;;1.91;76.73
59825;BME280;45703;50.898;6.054;2023-04-06T02:42:23;100282.75;;;1.94;76.68
59825;BME280;45703;50.898;6.054;2023-04-06T02:44:48;100275.19;;;1.91;76.89
59825;BME280;45703;50.898;6.054;2023-04-06T02:47:14;100281.25;;;1.91;76.95
59825;BME280;45703;50.898;6.054;2023-04-06T02:49:40;100274.66;;;1.87;77.03
59825;BME280;45703;50.898;6.054;2023-04-06T02:52:05;100271.22;;;1.87;77.22
59825;BME280;45703;50.898;6.054;2023-04-06T02:54:30;100267.94;;;1.85;77.02
59825;BME280;45703;50.898;6.054;2023-04-06T02:56:56;100263.00;;;1.82;77.24
59825;BME280;45703;50.898;6.054;2023-04-06T02:59:21;100271.56;;;1.84;77.15
59825;BME280;45703;50.898;6.054;2023-04-06T03:01:47;100262.34;;;1.80;77.62
59825;BME280;45703;50.898;6.054;2023-04-06T03:04:12;100262.19;;;1.81;77.76
59825;BME280;45703;50.898;6.054;2023-04-06T03:06:38;100260.72;;;1.79;77.62
59825;BME280;45703;50.898;6.054;2023-04-06T03:09:03;100262.19;;;1.81;77.64
59825;BME280;45703;50.898;6.054;2023-04-06T03:11:29;100268.94;;;1.84;77.85
59825;BME280;45703;50.898;6.054;2023-04-06T03:13:54;100260.03;;;1.85;77.91
59825;BME280;45703;50.898;6.054;2023-04-06T03:16:20;100247.88;;;1.84;77.59
59825;BME280;45703;50.898;6.054;2023-04-06T03:18:45;100261.19;;;1.90;77.68
59825;BME280;45703;50.898;6.054;2023-04-06T03:21:12;100255.56;;;1.93;77.77
59825;BME280;45703;50.898;6.054;2023-04-06T03:23:38;100261.34;;;1.97;77.67
59825;BME280;45703;50.898;6.054;2023-04-06T03:26:03;100242.94;;;1.89;77.51
59825;BME280;45703;50.898;6.054;2023-04-06T03:28:29;100257.41;;;2.01;77.21
59825;BME280;45703;50.898;6.054;2023-04-06T03:30:54;100252.13;;;2.01;77.74
59825;BME280;45703;50.898;6.054;2023-04-06T03:33:20;100246.03;;;2.00;77.81
59825;BME280;45703;50.898;6.054;2023-04-06T03:35:45;100255.59;;;2.09;77.42
59825;BME280;45703;50.898;6.054;2023-04-06T03:38:10;100258.03;;;2.11;77.35
59825;BME280;45703;50.898;6.054;2023-04-06T03:40:36;100242.25;;;2.03;77.33
59825;BME280;45703;50.898;6.054;2023-04-06T03:43:01;100253.94;;;2.08;77.44
59825;BME280;45703;50.898;6.054;2023-04-06T03:45:27;100251.78;;;2.12;77.29
59825;BME280;45703;50.898;6.054;2023-04-06T03:47:52;100246.69;;;2.10;77.07
59825;BME280;45703;50.898;6.054;2023-04-06T03:50:18;100240.25;;;2.13;77.11
59825;BME280;45703;50.898;6.054;2023-04-06T03:52:43;100238.63;;;2.12;77.10
59825;BME280;45703;50.898;6.054;2023-04-06T03:55:09;100230.06;;;2.10;76.76
59825;BME280;45703;50.898;6.054;2023-04-06T03:57:34;100236.63;;;2.14;76.76
59825;BME280;45703;50.898;6.054;2023-04-06T04:00:00;100233.00;;;2.15;76.88
59825;BME280;45703;50.898;6.054;2023-04-06T04:02:25;100238.59;;;2.20;77.24
59825;BME280;45703;50.898;6.054;2023-04-06T04:04:51;100245.16;;;2.24;76.79
59825;BME280;45703;50.898;6.054;2023-04-06T04:07:16;100247.66;;;2.25;77.01
59825;BME280;45703;50.898;6.054;2023-04-06T04:09:42;100242.53;;;2.24;77.09
59825;BME280;45703;50.898;6.054;2023-04-06T04:12:07;100240.72;;;2.24;77.39
59825;BME280;45703;50.898;6.054;2023-04-06T04:14:33;100253.22;;;2.30;77.23
59825;BME280;45703;50.898;6.054;2023-04-06T04:16:58;100252.09;;;2.33;77.03
59825;BME280;45703;50.898;6.054;2023-04-06T04:19:24;100241.56;;;2.33;76.58
59825;BME280;45703;50.898;6.054;2023-04-06T04:21:49;100253.38;;;2.37;76.54
59825;BME280;45703;50.898;6.054;2023-04-06T04:24:14;100250.75;;;2.37;76.63
59825;BME280;45703;50.898;6.054;2023-04-06T04:26:40;100249.75;;;2.38;76.48
59825;BME280;45703;50.898;6.054;2023-04-06T04:29:09;100244.84;;;2.35;76.40
59825;BME280;45703;50.898;6.054;2023-04-06T04:31:34;100245.81;;;2.34;76.74
59825;BME280;45703;50.898;6.054;2023-04-06T04:34:00;100246.47;;;2.36;76.46
59825;BME280;45703;50.898;6.054;2023-04-06T04:36:26;100255.84;;;2.38;76.76
59825;BME280;45703;50.898;6.054;2023-04-06T04:38:52;100257.66;;;2.38;77.32
59825;BME280;45703;50.898;6.054;2023-04-06T04:41:18;100255.03;;;2.38;77.51
59825;BME280;45703;50.898;6.054;2023-04-06T04:43:43;100257.00;;;2.36;77.73
59825;BME280;45703;50.898;6.054;2023-04-06T04:46:09;100252.41;;;2.38;77.61
59825;BME280;45703;50.898;6.054;2023-04-06T04:48:35;100247.47;;;2.35;77.86
59825;BME280;45703;50.898;6.054;2023-04-06T04:51:01;100242.19;;;2.35;78.20
59825;BME280;45703;50.898;6.054;2023-04-06T04:53:27;100249.13;;;2.36;77.70
59825;BME280;45703;50.898;6.054;2023-04-06T04:55:52;100245.16;;;2.40;77.15
59825;BME280;45703;50.898;6.054;2023-04-06T04:58:17;100257.97;;;2.43;77.21
59825;BME280;45703;50.898;6.054;2023-04-06T05:00:45;100240.88;;;2.39;77.60
59825;BME280;45703;50.898;6.054;2023-04-06T05:03:19;100250.72;;;2.45;77.44
59825;BME280;45703;50.898;6.054;2023-04-06T05:05:45;100242.50;;;2.40;77.74
59825;BME280;45703;50.898;6.054;2023-04-06T05:08:11;100253.69;;;2.42;77.76
59825;BME280;45703;50.898;6.054;2023-04-06T05:10:37;100245.16;;;2.40;77.79
59825;BME280;45703;50.898;6.054;2023-04-06T05:13:02;100244.16;;;2.41;77.93
59825;BME280;45703;50.898;6.054;2023-04-06T05:15:28;100238.88;;;2.41;78.00
59825;BME280;45703;50.898;6.054;2023-04-06T05:17:53;100247.75;;;2.48;78.09
59825;BME280;45703;50.898;6.054;2023-04-06T05:20:21;100242.78;;;2.53;77.75
59825;BME280;45703;50.898;6.054;2023-04-06T05:22:47;100244.44;;;2.54;77.72
59825;BME280;45703;50.898;6.054;2023-04-06T05:25:13;100243.28;;;2.56;77.90
59825;BME280;45703;50.898;6.054;2023-04-06T05:27:38;100243.75;;;2.60;77.75
59825;BME280;45703;50.898;6.054;2023-04-06T05:30:05;100232.41;;;2.59;77.91
59825;BME280;45703;50.898;6.054;2023-04-06T05:32:31;100229.94;;;2.58;77.85
59825;BME280;45703;50.898;6.054;2023-04-06T05:34:56;100228.56;;;2.70;77.77
59825;BME280;45703;50.898;6.054;2023-04-06T05:37:22;100239.91;;;2.78;77.77
59825;BME280;45703;50.898;6.054;2023-04-06T05:39:47;100237.25;;;2.78;77.50
59825;BME280;45703;50.898;6.054;2023-04-06T05:42:13;100244.66;;;2.83;77.80
59825;BME280;45703;50.898;6.054;2023-04-06T05:44:38;100231.44;;;2.90;77.37
59825;BME280;45703;50.898;6.054;2023-04-06T05:47:04;100232.38;;;2.97;77.25
59825;BME280;45703;50.898;6.054;2023-04-06T05:49:29;100224.78;;;3.02;77.17
59825;BME280;45703;50.898;6.054;2023-04-06T05:51:55;100227.56;;;3.09;77.44
59825;BME280;45703;50.898;6.054;2023-04-06T05:54:20;100214.69;;;3.06;77.54
59825;BME280;45703;50.898;6.054;2023-04-06T05:56:46;100229.59;;;3.21;77.43
59825;BME280;45703;50.898;6.054;2023-04-06T05:59:11;100234.00;;;3.29;77.06
59825;BME280;45703;50.898;6.054;2023-04-06T06:01:37;100222.28;;;3.31;77.30
59825;BME280;45703;50.898;6.054;2023-04-06T06:04:02;100225.22;;;3.36;77.32
59825;BME280;45703;50.898;6.054;2023-04-06T06:06:29;100229.75;;;3.50;77.55
59825;BME280;45703;50.898;6.054;2023-04-06T06:08:57;100233.47;;;3.56;76.92
59825;BME280;45703;50.898;6.054;2023-04-06T06:11:27;100228.97;;;3.64;76.90
59825;BME280;45703;50.898;6.054;2023-04-06T06:13:53;100228.91;;;3.72;76.06
59825;BME280;45703;50.898;6.054;2023-04-06T06:16:18;100227.81;;;3.81;75.85
59825;BME280;45703;50.898;6.054;2023-04-06T06:18:44;100225.13;;;3.89;75.31
59825;BME280;45703;50.898;6.054;2023-04-06T06:21:10;100222.41;;;3.97;75.66
59825;BME280;45703;50.898;6.054;2023-04-06T06:23:37;100213.28;;;4.00;75.50
59825;BME280;45703;50.898;6.054;2023-04-06T06:26:03;100229.00;;;4.16;75.26
59825;BME280;45703;50.898;6.054;2023-04-06T06:28:28;100232.19;;;4.25;75.13
59825;BME280;45703;50.898;6.054;2023-04-06T06:30:54;100230.31;;;4.34;75.09
59825;BME280;45703;50.898;6.054;2023-04-06T06:33:19;100223.66;;;4.38;75.21
59825;BME280;45703;50.898;6.054;2023-04-06T06:35:45;100213.00;;;4.46;75.59
59825;BME280;45703;50.898;6.054;2023-04-06T06:38:10;100228.66;;;4.62;75.17
59825;BME280;45703;50.898;6.054;2023-04-06T06:40:35;100223.09;;;4.71;74.04
59825;BME280;45703;50.898;6.054;2023-04-06T06:43:02;100232.19;;;4.83;74.20
59825;BME280;45703;50.898;6.054;2023-04-06T06:45:27;100220.69;;;4.91;74.35
59825;BME280;45703;50.898;6.054;2023-04-06T06:47:54;100228.03;;;5.10;74.37
59825;BME280;45703;50.898;6.054;2023-04-06T06:50:19;100216.94;;;5.21;74.38
59825;BME280;45703;50.898;6.054;2023-04-06T06:52:45;100219.72;;;5.34;73.79
59825;BME280;45703;50.898;6.054;2023-04-06T06:55:10;100222.97;;;5.50;73.61
59825;BME280;45703;50.898;6.054;2023-04-06T06:57:36;100226.38;;;5.65;73.45
59825;BME280;45703;50.898;6.054;2023-04-06T07:00:02;100219.38;;;5.78;72.60
59825;BME280;45703;50.898;6.054;2023-04-06T07:02:30;100218.13;;;5.95;72.28
59825;BME280;45703;50.898;6.054;2023-04-06T07:04:56;100224.75;;;6.12;72.19
59825;BME280;45703;50.898;6.054;2023-04-06T07:07:21;100223.66;;;6.28;71.67
59825;BME280;45703;50.898;6.054;2023-04-06T07:09:46;100219.25;;;6.41;71.49
59825;BME280;45703;50.898;6.054;2023-04-06T07:12:12;100212.63;;;6.58;71.35
59825;BME280;45703;50.898;6.054;2023-04-06T07:14:37;100217.97;;;6.71;71.08
59825;BME280;45703;50.898;6.054;2023-04-06T07:17:03;100218.47;;;6.88;71.06
59825;BME280;45703;50.898;6.054;2023-04-06T07:19:28;100201.78;;;7.00;71.30
59825;BME280;45703;50.898;6.054;2023-04-06T07:21:54;100211.59;;;7.12;70.97
59825;BME280;45703;50.898;6.054;2023-04-06T07:24:19;100213.88;;;7.22;70.45
59825;BME280;45703;50.898;6.054;2023-04-06T07:26:45;100210.03;;;7.31;70.36
59825;BME280;45703;50.898;6.054;2023-04-06T07:29:10;100216.81;;;7.40;69.85
59825;BME280;45703;50.898;6.054;2023-04-06T07:31:36;100215.59;;;7.49;69.17
59825;BME280;45703;50.898;6.054;2023-04-06T07:34:01;100213.78;;;7.56;69.29
59825;BME280;45703;50.898;6.054;2023-04-06T07:36:29;100217.03;;;7.64;69.52
59825;BME280;45703;50.898;6.054;2023-04-06T07:38:54;100203.75;;;7.71;68.61
59825;BME280;45703;50.898;6.054;2023-04-06T07:41:20;100205.19;;;7.80;68.79
59825;BME280;45703;50.898;6.054;2023-04-06T07:43:45;100202.31;;;7.88;68.69
59825;BME280;45703;50.898;6.054;2023-04-06T07:46:10;100200.69;;;7.93;68.02
59825;BME280;45703;50.898;6.054;2023-04-06T07:48:37;100203.56;;;8.05;68.38
59825;BME280;45703;50.898;6.054;2023-04-06T07:51:04;100198.22;;;8.11;67.56
59825;BME280;45703;50.898;6.054;2023-04-06T07:53:29;100209.72;;;8.25;67.94
59825;BME280;45703;50.898;6.054;2023-04-06T07:55:56;100204.38;;;8.31;67.94
59825;BME280;45703;50.898;6.054;2023-04-06T07:58:21;100206.00;;;8.39;67.67
59825;BME280;45703;50.898;6.054;2023-04-06T08:00:48;100202.72;;;8.50;67.60
59825;BME280;45703;50.898;6.054;2023-04-06T08:03:14;100197.34;;;8.56;68.15
59825;BME280;45703;50.898;6.054;2023-04-06T08:05:42;100200.63;;;8.64;67.08
59825;BME280;45703;50.898;6.054;2023-04-06T08:08:08;100204.69;;;8.73;67.38
59825;BME280;45703;50.898;6.054;2023-04-06T08:10:35;100193.19;;;8.79;66.59
59825;BME280;45703;50.898;6.054;2023-04-06T08:13:01;100189.84;;;8.90;67.02
59825;BME280;45703;50.898;6.054;2023-04-06T08:15:26;100195.34;;;9.02;66.77
59825;BME280;45703;50.898;6.054;2023-04-06T08:17:51;100195.94;;;9.10;66.66
59825;BME280;45703;50.898;6.054;2023-04-06T08:20:17;100207.09;;;9.25;65.82
59825;BME280;45703;50.898;6.054;2023-04-06T08:22:43;100198.25;;;9.31;66.43
59825;BME280;45703;50.898;6.054;2023-04-06T08:25:08;100198.81;;;9.46;65.53
59825;BME280;45703;50.898;6.054;2023-04-06T08:27:34;100202.78;;;9.62;64.86
59825;BME280;45703;50.898;6.054;2023-04-06T08:29:59;100206.16;;;9.75;64.18
59825;BME280;45703;50.898;6.054;2023-04-06T08:32:25;100195.47;;;9.82;65.07
59825;BME280;45703;50.898;6.054;2023-04-06T08:34:53;100208.88;;;9.93;63.26
59825;BME280;45703;50.898;6.054;2023-04-06T08:37:19;100201.88;;;10.05;64.50
59825;BME280;45703;50.898;6.054;2023-04-06T08:39:44;100198.91;;;10.13;63.46
59825;BME280;45703;50.898;6.054;2023-04-06T08:42:19;100207.63;;;10.26;62.72
59825;BME280;45703;50.898;6.054;2023-04-06T08:44:45;100201.41;;;10.32;63.49
59825;BME280;45703;50.898;6.054;2023-04-06T08:47:11;100201.75;;;10.36;62.75
59825;BME280;45703;50.898;6.054;2023-04-06T08:49:37;100198.66;;;10.39;62.12
59825;BME280;45703;50.898;6.054;2023-04-06T08:52:06;100202.16;;;10.39;61.92
59825;BME280;45703;50.898;6.054;2023-04-06T08:54:32;100209.28;;;10.45;60.32
59825;BME280;45703;50.898;6.054;2023-04-06T08:56:58;100211.75;;;10.47;60.53
59825;BME280;45703;50.898;6.054;2023-04-06T08:59:25;100207.00;;;10.49;60.66
59825;BME280;45703;50.898;6.054;2023-04-06T09:01:51;100208.38;;;10.51;60.83
59825;BME280;45703;50.898;6.054;2023-04-06T09:04:17;100201.56;;;10.55;60.90
59825;BME280;45703;50.898;6.054;2023-04-06T09:06:43;100218.91;;;10.64;60.54
59825;BME280;45703;50.898;6.054;2023-04-06T09:09:08;100209.06;;;10.65;59.20
59825;BME280;45703;50.898;6.054;2023-04-06T09:11:46;100215.22;;;10.65;59.90
59825;BME280;45703;50.898;6.054;2023-04-06T09:14:12;100215.28;;;10.59;58.15
59825;BME280;45703;50.898;6.054;2023-04-06T09:16:42;100209.97;;;10.59;58.62
59825;BME280;45703;50.898;6.054;2023-04-06T09:19:09;100214.41;;;10.65;58.75
59825;BME280;45703;50.898;6.054;2023-04-06T09:21:35;100224.63;;;10.68;60.27
59825;BME280;45703;50.898;6.054;2023-04-06T09:24:02;100218.84;;;10.71;59.73
59825;BME280;45703;50.898;6.054;2023-04-06T09:26:28;100220.50;;;10.72;58.53
59825;BME280;45703;50.898;6.054;2023-04-06T09:28:54;100226.66;;;10.72;57.93
59825;BME280;45703;50.898;6.054;2023-04-06T09:31:38;100223.59;;;10.69;57.71
59825;BME280;45703;50.898;6.054;2023-04-06T09:34:06;100220.94;;;10.69;58.20
59825;BME280;45703;50.898;6.054;2023-04-06T09:36:36;100227.00;;;10.76;58.87
59825;BME280;45703;50.898;6.054;2023-04-06T09:39:06;100223.31;;;10.77;58.67
59825;BME280;45703;50.898;6.054;2023-04-06T09:41:35;100223.59;;;10.87;58.36
59825;BME280;45703;50.898;6.054;2023-04-06T09:46:40;100227.53;;;11.02;59.27
59825;BME280;45703;50.898;6.054;2023-04-06T09:49:08;100222.56;;;11.06;56.48
59825;BME280;45703;50.898;6.054;2023-04-06T09:51:38;100232.94;;;11.14;56.42
59825;BME280;45703;50.898;6.054;2023-04-06T09:54:04;100232.69;;;11.15;57.72
59825;BME280;45703;50.898;6.054;2023-04-06T09:56:34;100228.19;;;11.16;53.81
59825;BME280;45703;50.898;6.054;2023-04-06T09:59:08;100221.34;;;11.20;55.82
59825;BME280;45703;50.898;6.054;2023-04-06T10:01:37;100225.34;;;11.29;58.24
59825;BME280;45703;50.898;6.054;2023-04-06T10:07:07;100216.66;;;11.44;56.62
59825;BME280;45703;50.898;6.054;2023-04-06T10:09:35;100220.56;;;11.48;57.52
59825;BME280;45703;50.898;6.054;2023-04-06T10:12:03;100216.84;;;11.49;56.45
59825;BME280;45703;50.898;6.054;2023-04-06T10:14:31;100217.41;;;11.51;57.11
59825;BME280;45703;50.898;6.054;2023-04-06T10:16:59;100217.41;;;11.51;56.40
59825;BME280;45703;50.898;6.054;2023-04-06T10:19:29;100223.34;;;11.53;57.35
59825;BME280;45703;50.898;6.054;2023-04-06T10:21:57;100212.16;;;11.45;57.82
59825;BME280;45703;50.898;6.054;2023-04-06T10:24:24;100222.75;;;11.51;58.05
59825;BME280;45703;50.898;6.054;2023-04-06T10:27:02;100211.03;;;11.52;56.45
59825;BME280;45703;50.898;6.054;2023-04-06T10:29:28;100226.69;;;11.49;55.86
59825;BME280;45703;50.898;6.054;2023-04-06T10:32:05;100229.59;;;11.47;55.97
59825;BME280;45703;50.898;6.054;2023-04-06T10:34:35;100232.72;;;11.44;56.02
59825;BME280;45703;50.898;6.054;2023-04-06T10:37:10;100230.03;;;11.44;56.41
59825;BME280;45703;50.898;6.054;2023-04-06T10:39:54;100231.66;;;11.45;56.87
59825;BME280;45703;50.898;6.054;2023-04-06T10:42:37;100227.28;;;11.51;57.31
59825;BME280;45703;50.898;6.054;2023-04-06T10:45:07;100233.00;;;11.54;57.51
59825;BME280;45703;50.898;6.054;2023-04-06T10:47:40;100236.28;;;11.56;56.68
59825;BME280;45703;50.898;6.054;2023-04-06T10:50:06;100235.09;;;11.52;56.24
59825;BME280;45703;50.898;6.054;2023-04-06T10:52:31;100227.88;;;11.53;57.15
59825;BME280;45703;50.898;6.054;2023-04-06T10:54:57;100235.47;;;11.56;56.97
59825;BME280;45703;50.898;6.054;2023-04-06T10:57:29;100213.69;;;11.52;57.29
59825;BME280;45703;50.898;6.054;2023-04-06T10:59:56;100221.06;;;11.57;56.64
59825;BME280;45703;50.898;6.054;2023-04-06T11:02:21;100217.59;;;11.68;58.29
59825;BME280;45703;50.898;6.054;2023-04-06T11:04:56;100213.06;;;11.68;58.05
59825;BME280;45703;50.898;6.054;2023-04-06T11:07:23;100219.59;;;11.72;57.73
59825;BME280;45703;50.898;6.054;2023-04-06T11:09:50;100218.56;;;11.73;58.43
59825;BME280;45703;50.898;6.054;2023-04-06T11:12:23;100216.56;;;11.69;58.76
59825;BME280;45703;50.898;6.054;2023-04-06T11:15:00;100218.44;;;11.68;57.73
59825;BME280;45703;50.898;6.054;2023-04-06T11:17:34;100216.41;;;11.64;58.03
59825;BME280;45703;50.898;6.054;2023-04-06T11:20:02;100216.22;;;11.65;58.09
59825;BME280;45703;50.898;6.054;2023-04-06T11:22:28;100226.31;;;11.63;58.97
59825;BME280;45703;50.898;6.054;2023-04-06T11:25:04;100223.06;;;11.61;59.85
59825;BME280;45703;50.898;6.054;2023-04-06T11:27:31;100222.47;;;11.59;59.78
59825;BME280;45703;50.898;6.054;2023-04-06T11:29:58;100219.22;;;11.57;59.82
59825;BME280;45703;50.898;6.054;2023-04-06T11:32:24;100220.69;;;11.53;61.36
59825;BME280;45703;50.898;6.054;2023-04-06T11:34:49;100213.91;;;11.51;60.77
59825;BME280;45703;50.898;6.054;2023-04-06T11:37:15;100202.25;;;11.45;60.70
59825;BME280;45703;50.898;6.054;2023-04-06T11:39:50;100208.06;;;11.43;61.21
59825;BME280;45703;50.898;6.054;2023-04-06T11:42:38;100199.56;;;11.34;61.31
59825;BME280;45703;50.898;6.054;2023-04-06T11:45:03;100208.72;;;11.27;61.90
59825;BME280;45703;50.898;6.054;2023-04-06T11:47:32;100198.47;;;11.24;62.15
59825;BME280;45703;50.898;6.054;2023-04-06T11:52:33;100189.09;;;11.03;63.19
59825;BME280;45703;50.898;6.054;2023-04-06T11:55:10;100207.44;;;11.00;63.47
59825;BME280;45703;50.898;6.054;2023-04-06T11:57:36;100197.28;;;10.90;64.84
59825;BME280;45703;50.898;6.054;2023-04-06T12:00:02;100199.41;;;10.82;66.12
59825;BME280;45703;50.898;6.054;2023-04-06T12:02:27;100202.53;;;10.79;66.04
59825;BME280;45703;50.898;6.054;2023-04-06T12:04:53;100198.69;;;10.75;66.27
59825;BME280;45703;50.898;6.054;2023-04-06T12:07:18;100193.78;;;10.72;67.81
59825;BME280;45703;50.898;6.054;2023-04-06T12:09:44;100196.91;;;10.69;68.84
59825;BME280;45703;50.898;6.054;2023-04-06T12:12:09;100209.22;;;10.70;67.88
59825;BME280;45703;50.898;6.054;2023-04-06T12:14:35;100199.13;;;10.72;69.84
59825;BME280;45703;50.898;6.054;2023-04-06T12:17:00;100190.66;;;10.75;68.74
59825;BME280;45703;50.898;6.054;2023-04-06T12:19:26;100195.84;;;10.88;68.47
59825;BME280;45703;50.898;6.054;2023-04-06T12:21:52;100193.31;;;10.93;70.64
59825;BME280;45703;50.898;6.054;2023-04-06T12:24:18;100202.09;;;11.00;69.93
59825;BME280;45703;50.898;6.054;2023-04-06T12:26:44;100196.19;;;11.09;70.63
59825;BME280;45703;50.898;6.054;2023-04-06T12:29:10;100186.59;;;11.20;68.86
59825;BME280;45703;50.898;6.054;2023-04-06T12:31:38;100186.88;;;11.30;69.17
59825;BME280;45703;50.898;6.054;2023-04-06T12:34:06;100188.03;;;11.34;70.11
59825;BME280;45703;50.898;6.054;2023-04-06T12:36:32;100173.88;;;11.33;69.64
59825;BME280;45703;50.898;6.054;2023-04-06T12:38:58;100175.28;;;11.36;70.40
59825;BME280;45703;50.898;6.054;2023-04-06T12:41:23;100182.63;;;11.40;70.47
59825;BME280;45703;50.898;6.054;2023-04-06T12:43:50;100173.31;;;11.31;69.88
59825;BME280;45703;50.898;6.054;2023-04-06T12:46:17;100184.34;;;11.35;71.39
59825;BME280;45703;50.898;6.054;2023-04-06T12:48:42;100179.91;;;11.29;70.07
59825;BME280;45703;50.898;6.054;2023-04-06T12:51:08;100179.19;;;11.22;72.02
59825;BME280;45703;50.898;6.054;2023-04-06T12:53:34;100172.06;;;11.16;72.33
59825;BME280;45703;50.898;6.054;2023-04-06T12:56:00;100172.38;;;11.08;73.60
59825;BME280;45703;50.898;6.054;2023-04-06T12:58:26;100172.25;;;11.03;71.43
59825;BME280;45703;50.898;6.054;2023-04-06T13:00:52;100162.31;;;10.92;73.86
59825;BME280;45703;50.898;6.054;2023-04-06T13:03:19;100166.47;;;10.88;72.98